sensor_id;sensor_type;location;lat;lon;timestamp;temperature;humidity
57660;DHT22;43485;45.680;15.702;2023-08-17T00:01:07;22.20;60.30
57660;DHT22;43485;45.680;15.702;2023-08-17T00:03:33;22.20;60.50
57660;DHT22;43485;45.680;15.702;2023-08-17T00:05:59;22.20;60.30
57660;DHT22;43485;45.680;15.702;2023-08-17T00:08:25;22.30;61.50
57660;DHT22;43485;45.680;15.702;2023-08-17T00:10:51;22.30;60.30
57660;DHT22;43485;45.680;15.702;2023-08-17T00:13:16;22.30;60.20
57660;DHT22;43485;45.680;15.702;2023-08-17T00:15:42;22.30;60.10
57660;DHT22;43485;45.680;15.702;2023-08-17T00:18:10;22.30;60.20
57660;DHT22;43485;45.680;15.702;2023-08-17T00:20:37;22.30;60.50
57660;DHT22;43485;45.680;15.702;2023-08-17T00:23:03;22.30;60.80
57660;DHT22;43485;45.680;15.702;2023-08-17T00:25:29;22.20;59.90
57660;DHT22;43485;45.680;15.702;2023-08-17T00:27:55;22.20;62.10
57660;DHT22;43485;45.680;15.702;2023-08-17T00:30:21;22.20;60.80
57660;DHT22;43485;45.680;15.702;2023-08-17T00:32:47;22.20;60.90
57660;DHT22;43485;45.680;15.702;2023-08-17T00:35:13;22.10;61.10
57660;DHT22;43485;45.680;15.702;2023-08-17T00:37:39;22.10;61.40
57660;DHT22;43485;45.680;15.702;2023-08-17T00:40:05;22.10;61.50
57660;DHT22;43485;45.680;15.702;2023-08-17T00:42:32;22.10;61.30
57660;DHT22;43485;45.680;15.702;2023-08-17T00:44:58;22.00;61.60
57660;DHT22;43485;45.680;15.702;2023-08-17T00:47:24;22.00;61.60
57660;DHT22;43485;45.680;15.702;2023-08-17T00:49:51;21.90;61.90
57660;DHT22;43485;45.680;15.702;2023-08-17T00:52:17;21.90;61.50
57660;DHT22;43485;45.680;15.702;2023-08-17T00:54:43;21.90;62.10
57660;DHT22;43485;45.680;15.702;2023-08-17T00:57:09;21.90;62.00
57660;DHT22;43485;45.680;15.702;2023-08-17T00:59:35;21.90;62.30
57660;DHT22;43485;45.680;15.702;2023-08-17T01:02:02;21.90;62.40
57660;DHT22;43485;45.680;15.702;2023-08-17T01:04:28;21.80;61.80
57660;DHT22;43485;45.680;15.702;2023-08-17T01:06:54;21.90;62.40
57660;DHT22;43485;45.680;15.702;2023-08-17T01:09:20;21.90;62.30
57660;DHT22;43485;45.680;15.702;2023-08-17T01:18:32;21.80;62.20
57660;DHT22;43485;45.680;15.702;2023-08-17T01:21:02;21.80;62.30
57660;DHT22;43485;45.680;15.702;2023-08-17T01:23:28;21.80;62.30
57660;DHT22;43485;45.680;15.702;2023-08-17T01:25:54;21.80;62.40
57660;DHT22;43485;45.680;15.702;2023-08-17T01:28:23;21.80;62.50
57660;DHT22;43485;45.680;15.702;2023-08-17T01:33:52;21.70;62.80
57660;DHT22;43485;45.680;15.702;2023-08-17T01:36:26;21.70;62.60
57660;DHT22;43485;45.680;15.702;2023-08-17T01:38:56;21.70;62.80
57660;DHT22;43485;45.680;15.702;2023-08-17T01:41:23;21.70;63.00
57660;DHT22;43485;45.680;15.702;2023-08-17T01:43:51;21.70;62.90
57660;DHT22;43485;45.680;15.702;2023-08-17T01:46:18;21.60;63.00
57660;DHT22;43485;45.680;15.702;2023-08-17T01:48:45;21.60;62.80
57660;DHT22;43485;45.680;15.702;2023-08-17T01:51:18;21.70;62.60
57660;DHT22;43485;45.680;15.702;2023-08-17T01:53:47;21.70;62.60
57660;DHT22;43485;45.680;15.702;2023-08-17T01:56:14;21.60;63.70
57660;DHT22;43485;45.680;15.702;2023-08-17T01:58:40;21.60;62.80
57660;DHT22;43485;45.680;15.702;2023-08-17T02:01:06;21.50;62.80
57660;DHT22;43485;45.680;15.702;2023-08-17T02:03:32;21.30;62.10
57660;DHT22;43485;45.680;15.702;2023-08-17T02:05:59;21.20;62.10
57660;DHT22;43485;45.680;15.702;2023-08-17T02:08:25;21.30;62.80
57660;DHT22;43485;45.680;15.702;2023-08-17T02:10:51;21.20;62.70
57660;DHT22;43485;45.680;15.702;2023-08-17T02:13:18;21.10;62.70
57660;DHT22;43485;45.680;15.702;2023-08-17T02:15:45;21.00;62.80
57660;DHT22;43485;45.680;15.702;2023-08-17T02:18:12;21.00;63.00
57660;DHT22;43485;45.680;15.702;2023-08-17T02:20:38;20.90;63.30
57660;DHT22;43485;45.680;15.702;2023-08-17T02:23:04;20.90;63.40
57660;DHT22;43485;45.680;15.702;2023-08-17T02:25:30;20.80;63.50
57660;DHT22;43485;45.680;15.702;2023-08-17T02:28:01;20.80;63.50
57660;DHT22;43485;45.680;15.702;2023-08-17T02:30:29;20.80;63.20
57660;DHT22;43485;45.680;15.702;2023-08-17T02:32:55;20.80;63.50
57660;DHT22;43485;45.680;15.702;2023-08-17T02:35:21;20.80;63.70
57660;DHT22;43485;45.680;15.702;2023-08-17T02:37:47;20.70;62.70
57660;DHT22;43485;45.680;15.702;2023-08-17T02:40:13;20.70;63.50
57660;DHT22;43485;45.680;15.702;2023-08-17T02:42:39;20.70;63.80
57660;DHT22;43485;45.680;15.702;2023-08-17T02:45:25;20.60;63.60
57660;DHT22;43485;45.680;15.702;2023-08-17T02:47:51;20.60;64.00
57660;DHT22;43485;45.680;15.702;2023-08-17T02:50:17;20.50;64.60
57660;DHT22;43485;45.680;15.702;2023-08-17T02:52:43;20.40;64.50
57660;DHT22;43485;45.680;15.702;2023-08-17T02:55:09;20.40;64.60
57660;DHT22;43485;45.680;15.702;2023-08-17T02:57:35;20.50;64.40
57660;DHT22;43485;45.680;15.702;2023-08-17T03:00:01;20.40;64.40
57660;DHT22;43485;45.680;15.702;2023-08-17T03:02:27;20.40;64.40
57660;DHT22;43485;45.680;15.702;2023-08-17T03:04:53;20.40;64.60
57660;DHT22;43485;45.680;15.702;2023-08-17T03:07:19;20.40;64.80
57660;DHT22;43485;45.680;15.702;2023-08-17T03:09:45;20.50;64.60
57660;DHT22;43485;45.680;15.702;2023-08-17T03:12:11;20.40;64.40
57660;DHT22;43485;45.680;15.702;2023-08-17T03:14:37;20.40;64.50
57660;DHT22;43485;45.680;15.702;2023-08-17T03:17:03;20.50;64.70
57660;DHT22;43485;45.680;15.702;2023-08-17T03:19:29;20.40;64.30
57660;DHT22;43485;45.680;15.702;2023-08-17T03:21:55;20.50;64.20
57660;DHT22;43485;45.680;15.702;2023-08-17T03:24:21;20.40;64.40
57660;DHT22;43485;45.680;15.702;2023-08-17T03:26:48;20.40;64.40
57660;DHT22;43485;45.680;15.702;2023-08-17T03:29:13;20.30;64.90
57660;DHT22;43485;45.680;15.702;2023-08-17T03:31:39;20.20;64.70
57660;DHT22;43485;45.680;15.702;2023-08-17T03:34:06;20.10;64.10
57660;DHT22;43485;45.680;15.702;2023-08-17T03:36:32;20.10;64.60
57660;DHT22;43485;45.680;15.702;2023-08-17T03:38:57;20.10;64.40
57660;DHT22;43485;45.680;15.702;2023-08-17T03:41:24;20.10;64.30
57660;DHT22;43485;45.680;15.702;2023-08-17T03:43:50;19.90;64.20
57660;DHT22;43485;45.680;15.702;2023-08-17T03:46:16;20.00;64.50
57660;DHT22;43485;45.680;15.702;2023-08-17T03:48:42;20.00;64.60
57660;DHT22;43485;45.680;15.702;2023-08-17T03:51:08;20.00;64.40
57660;DHT22;43485;45.680;15.702;2023-08-17T03:53:34;20.00;64.50
57660;DHT22;43485;45.680;15.702;2023-08-17T03:56:00;19.90;64.50
57660;DHT22;43485;45.680;15.702;2023-08-17T03:58:26;19.90;64.60
57660;DHT22;43485;45.680;15.702;2023-08-17T04:00:55;19.90;64.50
57660;DHT22;43485;45.680;15.702;2023-08-17T04:03:21;19.80;64.80
57660;DHT22;43485;45.680;15.702;2023-08-17T04:05:47;19.90;64.90
57660;DHT22;43485;45.680;15.702;2023-08-17T04:08:13;19.90;64.90
57660;DHT22;43485;45.680;15.702;2023-08-17T04:10:39;19.90;64.80
57660;DHT22;43485;45.680;15.702;2023-08-17T04:13:05;19.80;64.30
57660;DHT22;43485;45.680;15.702;2023-08-17T04:15:31;19.90;65.00
57660;DHT22;43485;45.680;15.702;2023-08-17T04:17:57;20.00;65.10
57660;DHT22;43485;45.680;15.702;2023-08-17T04:20:23;20.00;65.00
57660;DHT22;43485;45.680;15.702;2023-08-17T04:22:50;20.00;65.10
57660;DHT22;43485;45.680;15.702;2023-08-17T04:25:17;20.00;65.10
57660;DHT22;43485;45.680;15.702;2023-08-17T04:27:42;20.00;65.20
57660;DHT22;43485;45.680;15.702;2023-08-17T04:30:09;20.10;65.10
57660;DHT22;43485;45.680;15.702;2023-08-17T04:32:35;20.10;65.20
57660;DHT22;43485;45.680;15.702;2023-08-17T04:35:01;20.10;65.30
57660;DHT22;43485;45.680;15.702;2023-08-17T04:37:27;20.20;65.30
57660;DHT22;43485;45.680;15.702;2023-08-17T04:39:53;20.20;65.10
57660;DHT22;43485;45.680;15.702;2023-08-17T04:42:19;20.20;65.20
57660;DHT22;43485;45.680;15.702;2023-08-17T04:44:46;20.20;65.30
57660;DHT22;43485;45.680;15.702;2023-08-17T04:47:12;20.20;66.40
57660;DHT22;43485;45.680;15.702;2023-08-17T04:49:38;20.20;65.60
57660;DHT22;43485;45.680;15.702;2023-08-17T04:52:04;20.20;65.80
57660;DHT22;43485;45.680;15.702;2023-08-17T04:54:30;20.30;66.00
57660;DHT22;43485;45.680;15.702;2023-08-17T04:56:56;20.30;66.00
57660;DHT22;43485;45.680;15.702;2023-08-17T04:59:22;20.30;65.90
57660;DHT22;43485;45.680;15.702;2023-08-17T05:01:48;20.40;65.80
57660;DHT22;43485;45.680;15.702;2023-08-17T05:04:14;20.40;66.10
57660;DHT22;43485;45.680;15.702;2023-08-17T05:06:40;20.40;66.10
57660;DHT22;43485;45.680;15.702;2023-08-17T05:09:06;20.50;66.30
57660;DHT22;43485;45.680;15.702;2023-08-17T05:11:32;20.50;66.10
57660;DHT22;43485;45.680;15.702;2023-08-17T05:13:58;20.60;66.10
57660;DHT22;43485;45.680;15.702;2023-08-17T05:16:24;20.60;66.10
57660;DHT22;43485;45.680;15.702;2023-08-17T05:18:50;20.60;66.10
57660;DHT22;43485;45.680;15.702;2023-08-17T05:21:16;20.70;66.20
57660;DHT22;43485;45.680;15.702;2023-08-17T05:23:42;20.80;66.50
57660;DHT22;43485;45.680;15.702;2023-08-17T05:26:08;20.80;66.00
57660;DHT22;43485;45.680;15.702;2023-08-17T05:28:34;20.80;66.30
57660;DHT22;43485;45.680;15.702;2023-08-17T05:31:19;20.80;66.30
57660;DHT22;43485;45.680;15.702;2023-08-17T05:33:45;20.80;66.50
57660;DHT22;43485;45.680;15.702;2023-08-17T05:36:12;20.80;66.40
57660;DHT22;43485;45.680;15.702;2023-08-17T05:38:38;20.90;66.30
57660;DHT22;43485;45.680;15.702;2023-08-17T05:41:04;20.90;66.20
57660;DHT22;43485;45.680;15.702;2023-08-17T05:43:30;21.00;66.00
57660;DHT22;43485;45.680;15.702;2023-08-17T05:46:15;21.00;66.00
57660;DHT22;43485;45.680;15.702;2023-08-17T05:48:41;21.10;66.00
57660;DHT22;43485;45.680;15.702;2023-08-17T05:51:07;21.20;66.10
57660;DHT22;43485;45.680;15.702;2023-08-17T05:53:33;21.30;66.00
57660;DHT22;43485;45.680;15.702;2023-08-17T05:55:59;21.20;66.00
57660;DHT22;43485;45.680;15.702;2023-08-17T05:58:25;21.30;66.10
57660;DHT22;43485;45.680;15.702;2023-08-17T06:00:51;21.40;66.00
57660;DHT22;43485;45.680;15.702;2023-08-17T06:03:17;21.50;65.70
57660;DHT22;43485;45.680;15.702;2023-08-17T06:05:43;21.60;65.90
57660;DHT22;43485;45.680;15.702;2023-08-17T06:08:08;21.60;65.80
57660;DHT22;43485;45.680;15.702;2023-08-17T06:10:35;21.60;65.90
57660;DHT22;43485;45.680;15.702;2023-08-17T06:13:01;21.70;66.40
57660;DHT22;43485;45.680;15.702;2023-08-17T06:15:27;21.70;67.10
57660;DHT22;43485;45.680;15.702;2023-08-17T06:17:53;21.70;67.10
57660;DHT22;43485;45.680;15.702;2023-08-17T06:20:19;21.80;66.80
57660;DHT22;43485;45.680;15.702;2023-08-17T06:22:46;21.90;66.70
57660;DHT22;43485;45.680;15.702;2023-08-17T06:25:13;22.00;66.00
57660;DHT22;43485;45.680;15.702;2023-08-17T06:27:40;22.20;65.70
57660;DHT22;43485;45.680;15.702;2023-08-17T06:30:07;22.30;65.30
57660;DHT22;43485;45.680;15.702;2023-08-17T06:32:33;22.40;64.70
57660;DHT22;43485;45.680;15.702;2023-08-17T06:34:59;22.50;65.00
57660;DHT22;43485;45.680;15.702;2023-08-17T06:37:25;22.60;64.70
57660;DHT22;43485;45.680;15.702;2023-08-17T06:39:51;22.70;64.70
57660;DHT22;43485;45.680;15.702;2023-08-17T06:42:17;22.80;64.40
57660;DHT22;43485;45.680;15.702;2023-08-17T06:44:43;22.90;64.70
57660;DHT22;43485;45.680;15.702;2023-08-17T06:47:09;23.00;63.80
57660;DHT22;43485;45.680;15.702;2023-08-17T06:49:35;23.10;63.80
57660;DHT22;43485;45.680;15.702;2023-08-17T06:52:01;23.20;63.60
57660;DHT22;43485;45.680;15.702;2023-08-17T06:54:27;23.30;63.40
57660;DHT22;43485;45.680;15.702;2023-08-17T06:56:53;23.40;62.90
57660;DHT22;43485;45.680;15.702;2023-08-17T06:59:19;23.50;62.90
57660;DHT22;43485;45.680;15.702;2023-08-17T07:01:45;23.70;62.20
57660;DHT22;43485;45.680;15.702;2023-08-17T07:04:11;24.00;61.70
57660;DHT22;43485;45.680;15.702;2023-08-17T07:06:37;24.20;62.00
57660;DHT22;43485;45.680;15.702;2023-08-17T07:09:03;24.40;60.70
57660;DHT22;43485;45.680;15.702;2023-08-17T07:11:30;24.70;61.10
57660;DHT22;43485;45.680;15.702;2023-08-17T07:13:57;24.90;59.00
57660;DHT22;43485;45.680;15.702;2023-08-17T07:16:23;25.20;59.10
57660;DHT22;43485;45.680;15.702;2023-08-17T07:18:49;25.50;58.80
57660;DHT22;43485;45.680;15.702;2023-08-17T07:21:15;25.60;56.90
57660;DHT22;43485;45.680;15.702;2023-08-17T07:23:44;26.00;56.90
57660;DHT22;43485;45.680;15.702;2023-08-17T07:26:11;26.40;56.10
57660;DHT22;43485;45.680;15.702;2023-08-17T07:28:37;26.50;55.00
57660;DHT22;43485;45.680;15.702;2023-08-17T07:31:03;26.70;55.00
57660;DHT22;43485;45.680;15.702;2023-08-17T07:33:31;27.10;55.20
57660;DHT22;43485;45.680;15.702;2023-08-17T07:35:57;27.50;53.70
57660;DHT22;43485;45.680;15.702;2023-08-17T07:38:24;27.90;53.40
57660;DHT22;43485;45.680;15.702;2023-08-17T07:40:50;28.20;52.90
57660;DHT22;43485;45.680;15.702;2023-08-17T07:43:16;28.50;52.40
57660;DHT22;43485;45.680;15.702;2023-08-17T07:45:42;28.70;50.70
57660;DHT22;43485;45.680;15.702;2023-08-17T07:48:08;29.00;50.80
57660;DHT22;43485;45.680;15.702;2023-08-17T07:50:34;29.40;49.90
57660;DHT22;43485;45.680;15.702;2023-08-17T07:53:00;29.80;49.50
57660;DHT22;43485;45.680;15.702;2023-08-17T07:55:26;30.30;48.70
57660;DHT22;43485;45.680;15.702;2023-08-17T07:57:52;30.70;47.40
57660;DHT22;43485;45.680;15.702;2023-08-17T08:00:18;31.10;44.50
57660;DHT22;43485;45.680;15.702;2023-08-17T08:02:46;31.40;44.30
57660;DHT22;43485;45.680;15.702;2023-08-17T08:05:12;31.70;42.50
57660;DHT22;43485;45.680;15.702;2023-08-17T08:07:39;32.10;42.80
57660;DHT22;43485;45.680;15.702;2023-08-17T08:10:06;32.50;41.90
57660;DHT22;43485;45.680;15.702;2023-08-17T08:12:33;32.90;40.30
57660;DHT22;43485;45.680;15.702;2023-08-17T08:14:59;33.50;40.40
57660;DHT22;43485;45.680;15.702;2023-08-17T08:17:26;34.10;39.80
57660;DHT22;43485;45.680;15.702;2023-08-17T08:19:52;34.60;37.80
57660;DHT22;43485;45.680;15.702;2023-08-17T08:22:19;35.00;37.40
57660;DHT22;43485;45.680;15.702;2023-08-17T08:24:45;35.40;36.50
57660;DHT22;43485;45.680;15.702;2023-08-17T08:27:11;35.90;35.00
57660;DHT22;43485;45.680;15.702;2023-08-17T08:29:37;36.40;32.90
57660;DHT22;43485;45.680;15.702;2023-08-17T08:32:03;36.70;32.90
57660;DHT22;43485;45.680;15.702;2023-08-17T08:34:29;37.20;31.80
57660;DHT22;43485;45.680;15.702;2023-08-17T08:36:55;37.70;31.10
57660;DHT22;43485;45.680;15.702;2023-08-17T08:39:21;37.90;29.50
57660;DHT22;43485;45.680;15.702;2023-08-17T08:41:47;38.20;29.90
57660;DHT22;43485;45.680;15.702;2023-08-17T08:44:13;38.60;29.00
57660;DHT22;43485;45.680;15.702;2023-08-17T08:46:40;39.00;29.00
57660;DHT22;43485;45.680;15.702;2023-08-17T08:49:08;39.60;28.30
57660;DHT22;43485;45.680;15.702;2023-08-17T08:51:40;40.10;27.60
57660;DHT22;43485;45.680;15.702;2023-08-17T08:57:15;41.00;25.90
57660;DHT22;43485;45.680;15.702;2023-08-17T08:59:43;41.40;25.70
57660;DHT22;43485;45.680;15.702;2023-08-17T09:02:14;41.90;24.50
57660;DHT22;43485;45.680;15.702;2023-08-17T09:04:44;42.30;24.30
57660;DHT22;43485;45.680;15.702;2023-08-17T09:07:31;42.70;22.90
57660;DHT22;43485;45.680;15.702;2023-08-17T09:09:58;42.80;22.50
57660;DHT22;43485;45.680;15.702;2023-08-17T09:12:25;43.20;22.80
57660;DHT22;43485;45.680;15.702;2023-08-17T09:14:51;43.70;22.00
57660;DHT22;43485;45.680;15.702;2023-08-17T09:17:27;44.10;21.80
57660;DHT22;43485;45.680;15.702;2023-08-17T09:19:53;44.40;21.10
57660;DHT22;43485;45.680;15.702;2023-08-17T09:22:24;44.80;20.70
57660;DHT22;43485;45.680;15.702;2023-08-17T09:24:51;45.10;20.30
57660;DHT22;43485;45.680;15.702;2023-08-17T09:27:17;45.60;19.30
57660;DHT22;43485;45.680;15.702;2023-08-17T09:29:43;46.10;18.90
57660;DHT22;43485;45.680;15.702;2023-08-17T09:32:11;46.10;18.70
57660;DHT22;43485;45.680;15.702;2023-08-17T09:35:00;46.20;19.10
57660;DHT22;43485;45.680;15.702;2023-08-17T09:37:47;46.60;18.80
57660;DHT22;43485;45.680;15.702;2023-08-17T09:40:14;47.10;18.70
57660;DHT22;43485;45.680;15.702;2023-08-17T09:42:40;47.50;18.60
57660;DHT22;43485;45.680;15.702;2023-08-17T09:45:07;47.60;17.00
57660;DHT22;43485;45.680;15.702;2023-08-17T09:47:33;47.70;17.30
57660;DHT22;43485;45.680;15.702;2023-08-17T09:50:00;48.20;17.60
57660;DHT22;43485;45.680;15.702;2023-08-17T09:52:26;48.60;17.00
57660;DHT22;43485;45.680;15.702;2023-08-17T09:54:52;48.70;16.40
57660;DHT22;43485;45.680;15.702;2023-08-17T09:57:20;48.90;16.20
57660;DHT22;43485;45.680;15.702;2023-08-17T09:59:46;49.40;15.70
57660;DHT22;43485;45.680;15.702;2023-08-17T10:02:31;49.70;15.50
57660;DHT22;43485;45.680;15.702;2023-08-17T10:04:57;50.00;15.60
57660;DHT22;43485;45.680;15.702;2023-08-17T10:07:30;50.30;15.00
57660;DHT22;43485;45.680;15.702;2023-08-17T10:10:02;50.70;14.50
57660;DHT22;43485;45.680;15.702;2023-08-17T10:12:36;50.90;14.10
57660;DHT22;43485;45.680;15.702;2023-08-17T10:15:07;50.90;13.90
57660;DHT22;43485;45.680;15.702;2023-08-17T10:17:51;51.30;13.10
57660;DHT22;43485;45.680;15.702;2023-08-17T10:20:23;51.30;13.90
57660;DHT22;43485;45.680;15.702;2023-08-17T10:23:17;51.80;13.70
57660;DHT22;43485;45.680;15.702;2023-08-17T10:25:44;51.80;13.50
57660;DHT22;43485;45.680;15.702;2023-08-17T10:28:11;51.80;13.30
57660;DHT22;43485;45.680;15.702;2023-08-17T10:30:38;51.90;13.10
57660;DHT22;43485;45.680;15.702;2023-08-17T10:33:06;52.20;13.30
57660;DHT22;43485;45.680;15.702;2023-08-17T10:35:33;52.20;13.50
57660;DHT22;43485;45.680;15.702;2023-08-17T10:38:00;52.40;13.30
57660;DHT22;43485;45.680;15.702;2023-08-17T10:40:34;52.30;13.40
57660;DHT22;43485;45.680;15.702;2023-08-17T10:43:00;52.10;12.90
57660;DHT22;43485;45.680;15.702;2023-08-17T10:45:29;52.00;12.80
57660;DHT22;43485;45.680;15.702;2023-08-17T10:50:59;52.60;13.10
57660;DHT22;43485;45.680;15.702;2023-08-17T10:53:26;53.10;13.00
57660;DHT22;43485;45.680;15.702;2023-08-17T10:55:58;53.40;12.60
57660;DHT22;43485;45.680;15.702;2023-08-17T10:58:24;53.60;12.50
57660;DHT22;43485;45.680;15.702;2023-08-17T11:00:54;53.10;12.90
57660;DHT22;43485;45.680;15.702;2023-08-17T11:03:22;53.30;12.40
57660;DHT22;43485;45.680;15.702;2023-08-17T11:05:50;53.60;12.20
57660;DHT22;43485;45.680;15.702;2023-08-17T11:08:38;53.50;12.60
57660;DHT22;43485;45.680;15.702;2023-08-17T11:11:28;53.90;12.30
57660;DHT22;43485;45.680;15.702;2023-08-17T11:13:57;54.70;12.40
57660;DHT22;43485;45.680;15.702;2023-08-17T11:16:23;54.90;11.00
57660;DHT22;43485;45.680;15.702;2023-08-17T11:18:49;54.70;11.70
57660;DHT22;43485;45.680;15.702;2023-08-17T11:21:16;54.40;11.30
57660;DHT22;43485;45.680;15.702;2023-08-17T11:23:43;55.10;12.10
57660;DHT22;43485;45.680;15.702;2023-08-17T11:26:10;55.30;11.70
57660;DHT22;43485;45.680;15.702;2023-08-17T11:28:36;55.30;11.60
57660;DHT22;43485;45.680;15.702;2023-08-17T11:31:05;54.80;11.20
57660;DHT22;43485;45.680;15.702;2023-08-17T11:33:32;55.00;11.90
57660;DHT22;43485;45.680;15.702;2023-08-17T11:36:02;55.40;11.30
57660;DHT22;43485;45.680;15.702;2023-08-17T11:38:32;55.60;11.10
57660;DHT22;43485;45.680;15.702;2023-08-17T11:41:00;55.50;11.20
57660;DHT22;43485;45.680;15.702;2023-08-17T11:43:29;55.90;10.90
57660;DHT22;43485;45.680;15.702;2023-08-17T11:45:56;56.00;11.00
57660;DHT22;43485;45.680;15.702;2023-08-17T11:48:24;56.20;11.20
57660;DHT22;43485;45.680;15.702;2023-08-17T11:50:51;56.80;10.80
57660;DHT22;43485;45.680;15.702;2023-08-17T11:53:18;56.60;10.80
57660;DHT22;43485;45.680;15.702;2023-08-17T11:55:44;54.40;11.80
57660;DHT22;43485;45.680;15.702;2023-08-17T11:58:10;52.40;12.30
57660;DHT22;43485;45.680;15.702;2023-08-17T12:00:40;51.50;13.00
57660;DHT22;43485;45.680;15.702;2023-08-17T12:03:07;52.60;12.80
57660;DHT22;43485;45.680;15.702;2023-08-17T12:05:33;53.80;12.20
57660;DHT22;43485;45.680;15.702;2023-08-17T12:08:00;54.70;11.40
57660;DHT22;43485;45.680;15.702;2023-08-17T12:10:46;53.70;12.10
57660;DHT22;43485;45.680;15.702;2023-08-17T12:13:12;52.60;12.90
57660;DHT22;43485;45.680;15.702;2023-08-17T12:15:38;51.10;13.70
57660;DHT22;43485;45.680;15.702;2023-08-17T12:18:05;50.40;13.80
57660;DHT22;43485;45.680;15.702;2023-08-17T12:23:35;53.00;12.90
57660;DHT22;43485;45.680;15.702;2023-08-17T12:26:01;53.80;12.60
57660;DHT22;43485;45.680;15.702;2023-08-17T12:28:28;54.70;11.90
57660;DHT22;43485;45.680;15.702;2023-08-17T12:31:13;54.40;11.30
57660;DHT22;43485;45.680;15.702;2023-08-17T12:33:39;54.50;11.40
57660;DHT22;43485;45.680;15.702;2023-08-17T12:36:05;53.10;12.60
57660;DHT22;43485;45.680;15.702;2023-08-17T12:38:32;51.90;12.50
57660;DHT22;43485;45.680;15.702;2023-08-17T12:40:58;52.00;13.50
57660;DHT22;43485;45.680;15.702;2023-08-17T12:43:24;50.60;13.90
57660;DHT22;43485;45.680;15.702;2023-08-17T12:45:50;49.00;14.90
57660;DHT22;43485;45.680;15.702;2023-08-17T12:48:16;48.10;15.90
57660;DHT22;43485;45.680;15.702;2023-08-17T12:50:42;47.30;16.00
57660;DHT22;43485;45.680;15.702;2023-08-17T12:53:08;46.90;16.40
57660;DHT22;43485;45.680;15.702;2023-08-17T12:55:34;48.60;15.80
57660;DHT22;43485;45.680;15.702;2023-08-17T12:58:01;50.10;14.70
57660;DHT22;43485;45.680;15.702;2023-08-17T13:00:27;50.80;14.30
57660;DHT22;43485;45.680;15.702;2023-08-17T13:02:53;51.10;14.30
57660;DHT22;43485;45.680;15.702;2023-08-17T13:05:19;52.10;14.00
57660;DHT22;43485;45.680;15.702;2023-08-17T13:07:45;53.60;13.30
57660;DHT22;43485;45.680;15.702;2023-08-17T13:10:11;53.90;12.40
57660;DHT22;43485;45.680;15.702;2023-08-17T13:12:37;54.40;12.00
57660;DHT22;43485;45.680;15.702;2023-08-17T13:15:04;54.30;12.40
57660;DHT22;43485;45.680;15.702;2023-08-17T13:17:30;54.50;12.00
57660;DHT22;43485;45.680;15.702;2023-08-17T13:19:56;55.00;12.00
57660;DHT22;43485;45.680;15.702;2023-08-17T13:22:22;55.40;12.00
57660;DHT22;43485;45.680;15.702;2023-08-17T13:24:48;55.70;11.00
57660;DHT22;43485;45.680;15.702;2023-08-17T13:27:14;55.50;11.40
57660;DHT22;43485;45.680;15.702;2023-08-17T13:29:40;55.70;11.50
57660;DHT22;43485;45.680;15.702;2023-08-17T13:32:06;55.80;10.80
57660;DHT22;43485;45.680;15.702;2023-08-17T13:34:32;55.50;11.20
57660;DHT22;43485;45.680;15.702;2023-08-17T13:36:58;55.20;11.80
57660;DHT22;43485;45.680;15.702;2023-08-17T13:39:24;54.30;11.80
57660;DHT22;43485;45.680;15.702;2023-08-17T13:41:50;54.30;11.90
57660;DHT22;43485;45.680;15.702;2023-08-17T13:44:16;54.30;12.00
57660;DHT22;43485;45.680;15.702;2023-08-17T13:46:42;54.80;11.80
57660;DHT22;43485;45.680;15.702;2023-08-17T13:49:08;54.80;11.50
57660;DHT22;43485;45.680;15.702;2023-08-17T13:51:34;55.00;11.80
57660;DHT22;43485;45.680;15.702;2023-08-17T13:54:00;55.40;11.90
57660;DHT22;43485;45.680;15.702;2023-08-17T13:56:26;55.40;11.10
57660;DHT22;43485;45.680;15.702;2023-08-17T13:58:52;55.80;11.10
57660;DHT22;43485;45.680;15.702;2023-08-17T14:01:18;55.90;10.50
57660;DHT22;43485;45.680;15.702;2023-08-17T14:03:45;56.20;11.10
57660;DHT22;43485;45.680;15.702;2023-08-17T14:06:11;56.40;10.90
57660;DHT22;43485;45.680;15.702;2023-08-17T14:08:37;56.80;10.90
57660;DHT22;43485;45.680;15.702;2023-08-17T14:11:04;56.90;10.40
57660;DHT22;43485;45.680;15.702;2023-08-17T14:13:32;56.90;10.50
57660;DHT22;43485;45.680;15.702;2023-08-17T14:15:59;57.00;10.60
57660;DHT22;43485;45.680;15.702;2023-08-17T14:18:26;56.90;10.00
57660;DHT22;43485;45.680;15.702;2023-08-17T14:20:52;56.40;10.70
57660;DHT22;43485;45.680;15.702;2023-08-17T14:23:18;55.90;10.70
57660;DHT22;43485;45.680;15.702;2023-08-17T14:25:44;55.50;10.80
57660;DHT22;43485;45.680;15.702;2023-08-17T14:28:10;55.70;11.20
57660;DHT22;43485;45.680;15.702;2023-08-17T14:30:36;55.40;11.00
57660;DHT22;43485;45.680;15.702;2023-08-17T14:33:02;55.30;11.40
57660;DHT22;43485;45.680;15.702;2023-08-17T14:35:28;55.40;11.40
57660;DHT22;43485;45.680;15.702;2023-08-17T14:37:54;55.70;10.90
57660;DHT22;43485;45.680;15.702;2023-08-17T14:40:23;55.40;11.40
57660;DHT22;43485;45.680;15.702;2023-08-17T14:42:49;55.50;11.60
57660;DHT22;43485;45.680;15.702;2023-08-17T14:45:15;55.40;11.50
57660;DHT22;43485;45.680;15.702;2023-08-17T14:47:41;54.90;11.40
57660;DHT22;43485;45.680;15.702;2023-08-17T14:50:08;54.70;12.20
57660;DHT22;43485;45.680;15.702;2023-08-17T14:52:34;54.30;11.50
57660;DHT22;43485;45.680;15.702;2023-08-17T14:55:01;53.90;11.60
57660;DHT22;43485;45.680;15.702;2023-08-17T14:57:27;53.70;12.10
57660;DHT22;43485;45.680;15.702;2023-08-17T14:59:53;53.50;11.90
57660;DHT22;43485;45.680;15.702;2023-08-17T15:02:19;53.20;11.60
57660;DHT22;43485;45.680;15.702;2023-08-17T15:04:45;53.10;12.10
57660;DHT22;43485;45.680;15.702;2023-08-17T15:07:11;53.10;11.50
57660;DHT22;43485;45.680;15.702;2023-08-17T15:09:38;52.80;11.90
57660;DHT22;43485;45.680;15.702;2023-08-17T15:12:05;52.80;11.40
57660;DHT22;43485;45.680;15.702;2023-08-17T15:14:31;52.30;12.50
57660;DHT22;43485;45.680;15.702;2023-08-17T15:16:57;51.60;12.90
57660;DHT22;43485;45.680;15.702;2023-08-17T15:19:23;51.40;13.30
57660;DHT22;43485;45.680;15.702;2023-08-17T15:21:49;50.70;13.70
57660;DHT22;43485;45.680;15.702;2023-08-17T15:24:15;50.20;14.30
57660;DHT22;43485;45.680;15.702;2023-08-17T15:26:41;49.60;14.60
57660;DHT22;43485;45.680;15.702;2023-08-17T15:29:07;48.50;15.20
57660;DHT22;43485;45.680;15.702;2023-08-17T15:31:33;47.20;16.00
57660;DHT22;43485;45.680;15.702;2023-08-17T15:33:59;45.40;17.60